Time;durP1;ratioP1;P1;durP2;ratioP2;P2;SDS_P1;SDS_P2;PMS_P1;PMS_P2;Temp;Humidity;BMP_temperature;BMP_pressure;BME280_temperature;BME280_humidity;BME280_pressure;Samples;Min_cycle;Max_cycle;Signal;HPM_P1;HPM_P2
2022/08/18 00:01:14;;;;;;;;;;;18.60;58.50;;;;;;5089753;28;19999;-79
2022/08/18 00:03:41;;;;;;;;;;;18.60;58.50;;;;;;5091185;28;19916;-79
2022/08/18 00:06:06;;;;;;;;;;;18.50;58.40;;;;;;5089757;28;20423;-79
2022/08/18 00:08:32;;;;;;;;;;;18.50;58.40;;;;;;5073058;28;20006;-79
2022/08/18 00:10:57;;;;;;;;;;;18.50;58.50;;;;;;5089455;28;19970;-79
2022/08/18 00:13:23;;;;;;;;;;;18.50;58.60;;;;;;5091003;28;19939;-79
2022/08/18 00:15:49;;;;;;;;;;;18.40;58.70;;;;;;5090590;28;20372;-79
2022/08/18 00:18:15;;;;;;;;;;;18.40;58.70;;;;;;5089103;28;20078;-79
2022/08/18 00:20:40;;;;;;;;;;;18.40;58.60;;;;;;5090470;28;19930;-79
2022/08/18 00:23:06;;;;;;;;;;;18.40;58.60;;;;;;5088628;28;20183;-79
2022/08/18 00:25:32;;;;;;;;;;;18.40;58.60;;;;;;5089370;28;20280;-79
2022/08/18 00:27:57;;;;;;;;;;;18.40;58.60;;;;;;5090536;28;19916;-79
2022/08/18 00:30:23;;;;;;;;;;;18.40;58.60;;;;;;5090938;28;19926;-79
2022/08/18 00:32:50;;;;;;;;;;;18.40;58.70;;;;;;5090324;28;19912;-79
2022/08/18 00:35:19;;;;;;;;;;;18.30;58.80;;;;;;5088877;28;19923;-79
2022/08/18 00:37:46;;;;;;;;;;;18.20;58.80;;;;;;5089017;28;19909;-79
2022/08/18 00:40:16;;;;;;;;;;;18.10;58.80;;;;;;5090191;28;19915;-79
2022/08/18 00:42:44;;;;;;;;;;;18.00;58.80;;;;;;5090044;28;19920;-79
2022/08/18 00:45:12;;;;;;;;;;;18.00;58.90;;;;;;5088746;28;19932;-79
2022/08/18 00:47:38;;;;;;;;;;;17.90;58.90;;;;;;5090142;28;19912;-79
2022/08/18 00:50:03;;;;;;;;;;;17.90;58.90;;;;;;5090111;28;19999;-79
2022/08/18 00:52:29;;;;;;;;;;;17.80;58.90;;;;;;5088807;28;19962;-78
2022/08/18 00:54:55;;;;;;;;;;;17.70;59.00;;;;;;5090331;28;19935;-78
2022/08/18 00:57:22;;;;;;;;;;;17.70;59.10;;;;;;5071821;28;19912;-78
2022/08/18 00:59:56;;;;;;;;;;;17.60;59.10;;;;;;5089835;28;19916;-78
2022/08/18 01:02:29;;;;;;;;;;;17.70;59.20;;;;;;5088437;28;20326;-78
2022/08/18 01:05:04;;;;;;;;;;;17.70;59.20;;;;;;5089991;28;19908;-78
2022/08/18 01:07:35;;;;;;;;;;;17.80;59.10;;;;;;5088379;28;19910;-78
2022/08/18 01:10:04;;;;;;;;;;;17.80;59.10;;;;;;5089553;28;19912;-78
2022/08/18 01:12:30;;;;;;;;;;;17.90;59.00;;;;;;5088559;28;19916;-78
2022/08/18 01:14:55;;;;;;;;;;;17.90;59.00;;;;;;5089541;28;19908;-78
2022/08/18 01:23:03;;;;;;;;;;;18.10;58.90;;;;;;5089889;28;19957;-78
2022/08/18 01:28:16;;;;;;;;;;;18.10;58.80;;;;;;5089499;28;19922;-79
2022/08/18 01:30:48;;;;;;;;;;;18.20;58.80;;;;;;5087846;28;19912;-78
2022/08/18 01:33:15;;;;;;;;;;;18.20;58.80;;;;;;5087609;28;20356;-79
2022/08/18 01:35:42;;;;;;;;;;;18.30;58.70;;;;;;5086927;28;20438;-79
2022/08/18 01:38:07;;;;;;;;;;;18.30;58.60;;;;;;5087832;28;19916;-79
2022/08/18 01:40:33;;;;;;;;;;;18.30;58.60;;;;;;5087807;28;19912;-79
2022/08/18 01:43:03;;;;;;;;;;;18.20;58.60;;;;;;5089014;28;19916;-78
2022/08/18 01:45:32;;;;;;;;;;;18.20;58.50;;;;;;5087612;28;19913;-78
2022/08/18 01:47:58;;;;;;;;;;;18.10;58.50;;;;;;5088895;28;19927;-78
2022/08/18 01:50:24;;;;;;;;;;;18.10;58.60;;;;;;5087569;28;19940;-79
2022/08/18 01:52:52;;;;;;;;;;;18.10;58.60;;;;;;5089006;28;19958;-79
2022/08/18 01:55:18;;;;;;;;;;;18.00;58.60;;;;;;5087539;28;19920;-78
2022/08/18 01:57:44;;;;;;;;;;;18.00;58.60;;;;;;5088763;28;20427;-79
2022/08/18 02:00:11;;;;;;;;;;;18.00;58.70;;;;;;5087518;28;20002;-79
2022/08/18 02:02:37;;;;;;;;;;;18.00;58.70;;;;;;5088834;28;19912;-78
2022/08/18 02:05:06;;;;;;;;;;;17.90;58.60;;;;;;5070685;28;19913;-78
2022/08/18 02:07:32;;;;;;;;;;;17.90;58.70;;;;;;5088592;28;19912;-79
2022/08/18 02:09:58;;;;;;;;;;;17.80;58.60;;;;;;5088549;28;19957;-78
2022/08/18 02:12:23;;;;;;;;;;;17.80;58.70;;;;;;5088599;28;19912;-78
2022/08/18 02:14:50;;;;;;;;;;;17.70;58.60;;;;;;5087002;28;19939;-78
2022/08/18 02:17:16;;;;;;;;;;;17.60;58.60;;;;;;5088599;28;19923;-79
2022/08/18 02:19:43;;;;;;;;;;;17.60;58.70;;;;;;5088435;28;20267;-78
2022/08/18 02:22:11;;;;;;;;;;;17.50;58.70;;;;;;5088338;28;19912;-79
2022/08/18 02:24:36;;;;;;;;;;;17.40;58.70;;;;;;5088345;28;20341;-78
2022/08/18 02:27:02;;;;;;;;;;;17.40;58.80;;;;;;5087443;28;20014;-78
2022/08/18 02:29:27;;;;;;;;;;;17.30;58.80;;;;;;5087236;28;19912;-79
2022/08/18 02:31:53;;;;;;;;;;;17.30;58.80;;;;;;5087113;28;19912;-79
2022/08/18 02:34:19;;;;;;;;;;;17.20;58.90;;;;;;5088234;28;20418;-78
2022/08/18 02:36:44;;;;;;;;;;;17.10;58.80;;;;;;5087074;28;19923;-79
2022/08/18 02:39:10;;;;;;;;;;;17.10;58.90;;;;;;5088177;28;19923;-79
2022/08/18 02:41:35;;;;;;;;;;;17.10;58.90;;;;;;5086702;28;19919;-79
2022/08/18 02:44:01;;;;;;;;;;;17.00;58.90;;;;;;5088568;28;19919;-79
2022/08/18 02:46:27;;;;;;;;;;;17.00;58.90;;;;;;5086765;28;19919;-79
2022/08/18 02:48:53;;;;;;;;;;;17.00;59.00;;;;;;5088468;28;19908;-78
2022/08/18 02:51:19;;;;;;;;;;;17.00;59.00;;;;;;5088325;28;19940;-79
2022/08/18 02:53:45;;;;;;;;;;;17.00;58.90;;;;;;5086810;28;19933;-79
2022/08/18 02:58:54;;;;;;;;;;;16.90;58.90;;;;;;5088356;28;20291;-78
2022/08/18 03:01:21;;;;;;;;;;;16.80;58.90;;;;;;5087912;28;19919;-78
2022/08/18 03:03:47;;;;;;;;;;;16.80;58.90;;;;;;5088155;28;19909;-79
2022/08/18 03:06:13;;;;;;;;;;;16.80;59.00;;;;;;5086593;28;20348;-79
2022/08/18 03:08:39;;;;;;;;;;;16.70;59.00;;;;;;5086573;28;19919;-69
2022/08/18 03:11:04;;;;;;;;;;;16.70;59.00;;;;;;5087731;28;19923;-79
2022/08/18 03:13:30;;;;;;;;;;;16.60;59.00;;;;;;5086575;28;19995;-79
2022/08/18 03:15:56;;;;;;;;;;;16.60;59.10;;;;;;5086320;28;19920;-79
2022/08/18 03:18:22;;;;;;;;;;;16.60;59.10;;;;;;5086478;28;19908;-79
2022/08/18 03:20:48;;;;;;;;;;;16.60;59.70;;;;;;5087733;28;19916;-79
2022/08/18 03:23:14;;;;;;;;;;;16.60;59.10;;;;;;5087603;28;19908;-79
2022/08/18 03:25:43;;;;;;;;;;;16.70;59.20;;;;;;5087722;28;20287;-79
2022/08/18 03:28:08;;;;;;;;;;;16.80;59.10;;;;;;5087644;28;19912;-79
2022/08/18 03:30:34;;;;;;;;;;;16.80;59.10;;;;;;5086453;28;19913;-79
2022/08/18 03:32:59;;;;;;;;;;;16.80;59.00;;;;;;5086428;28;19948;-79
2022/08/18 03:35:25;;;;;;;;;;;16.80;59.00;;;;;;5086330;28;20425;-79
2022/08/18 03:37:51;;;;;;;;;;;16.80;59.00;;;;;;5086285;28;19912;-79
2022/08/18 03:40:16;;;;;;;;;;;16.80;59.00;;;;;;5086327;28;19916;-79
2022/08/18 03:42:42;;;;;;;;;;;16.90;59.00;;;;;;5087852;28;19924;-79
2022/08/18 03:45:08;;;;;;;;;;;16.90;59.00;;;;;;5086226;28;19921;-79
2022/08/18 03:47:34;;;;;;;;;;;16.90;59.00;;;;;;5087475;28;20011;-79
2022/08/18 03:49:59;;;;;;;;;;;16.90;59.00;;;;;;5087303;28;19919;-78
2022/08/18 03:52:25;;;;;;;;;;;16.90;58.90;;;;;;5087323;28;19908;-79
2022/08/18 03:54:51;;;;;;;;;;;16.90;59.00;;;;;;5086038;28;20344;-79
2022/08/18 03:57:17;;;;;;;;;;;16.90;59.00;;;;;;5087877;28;20074;-79
2022/08/18 03:59:43;;;;;;;;;;;16.90;59.00;;;;;;5089518;28;19908;-78
2022/08/18 04:02:09;;;;;;;;;;;16.90;59.00;;;;;;5089639;28;19916;-79
2022/08/18 04:04:35;;;;;;;;;;;16.90;59.00;;;;;;5090924;28;20262;-79
2022/08/18 04:07:04;;;;;;;;;;;17.00;59.10;;;;;;5089391;28;19923;-79
2022/08/18 04:09:31;;;;;;;;;;;17.00;59.00;;;;;;5090811;28;20283;-79
2022/08/18 04:11:57;;;;;;;;;;;17.00;58.90;;;;;;5090866;28;19920;-79
2022/08/18 04:14:24;;;;;;;;;;;17.00;58.90;;;;;;5090898;28;19956;-79
2022/08/18 04:16:49;;;;;;;;;;;16.90;58.90;;;;;;5089423;28;19919;-79
2022/08/18 04:19:16;;;;;;;;;;;16.90;58.90;;;;;;5090728;28;19999;-79
2022/08/18 04:21:43;;;;;;;;;;;16.90;59.00;;;;;;5089758;28;20016;-79
2022/08/18 04:24:09;;;;;;;;;;;16.80;59.00;;;;;;5090673;28;19920;-79
2022/08/18 04:26:39;;;;;;;;;;;16.80;59.10;;;;;;5090686;28;19915;-79
2022/08/18 04:29:05;;;;;;;;;;;16.80;59.10;;;;;;5090941;28;19915;-79
2022/08/18 04:31:31;;;;;;;;;;;16.80;59.10;;;;;;5090615;28;19908;-79
2022/08/18 04:33:57;;;;;;;;;;;16.80;59.10;;;;;;5090797;28;20004;-79
2022/08/18 04:36:23;;;;;;;;;;;16.90;59.10;;;;;;5089340;28;19920;-79
2022/08/18 04:38:49;;;;;;;;;;;16.90;59.10;;;;;;5089203;28;20398;-79
2022/08/18 04:41:15;;;;;;;;;;;16.90;59.10;;;;;;5090466;28;19985;-79
2022/08/18 04:43:41;;;;;;;;;;;16.90;59.70;;;;;;5090545;28;20364;-78
2022/08/18 04:46:07;;;;;;;;;;;16.90;59.10;;;;;;5090312;28;19908;-79
2022/08/18 04:48:39;;;;;;;;;;;17.00;59.20;;;;;;5090006;28;20497;-79
2022/08/18 04:51:15;;;;;;;;;;;17.00;59.10;;;;;;5090180;28;20291;-79
2022/08/18 04:53:44;;;;;;;;;;;16.90;59.10;;;;;;5090340;28;19908;-79
2022/08/18 04:56:31;;;;;;;;;;;16.90;59.20;;;;;;5088825;28;19916;-79
2022/08/18 04:59:01;;;;;;;;;;;16.90;59.10;;;;;;5089916;28;19971;-73
2022/08/18 05:01:30;;;;;;;;;;;16.90;59.10;;;;;;5089902;28;19914;-79
2022/08/18 05:03:57;;;;;;;;;;;16.90;59.10;;;;;;5089953;28;19951;-79
2022/08/18 05:06:24;;;;;;;;;;;16.90;59.10;;;;;;5090049;28;20249;-79
2022/08/18 05:08:53;;;;;;;;;;;16.90;59.10;;;;;;5088209;28;19919;-79
2022/08/18 05:11:20;;;;;;;;;;;16.90;59.10;;;;;;5089792;28;19908;-79
2022/08/18 05:13:47;;;;;;;;;;;16.90;59.10;;;;;;5089740;28;19958;-79
2022/08/18 05:16:13;;;;;;;;;;;16.90;59.10;;;;;;5089634;28;20260;-79
2022/08/18 05:18:39;;;;;;;;;;;16.90;59.10;;;;;;5088403;28;20381;-79
2022/08/18 05:21:05;;;;;;;;;;;16.90;59.10;;;;;;5089636;28;20379;-79
2022/08/18 05:23:31;;;;;;;;;;;16.90;59.20;;;;;;5089721;28;19908;-79
2022/08/18 05:26:02;;;;;;;;;;;16.90;59.20;;;;;;5089817;28;19918;-79
2022/08/18 05:28:28;;;;;;;;;;;16.90;59.10;;;;;;5089588;28;19935;-79
2022/08/18 05:30:54;;;;;;;;;;;16.80;59.10;;;;;;5087853;28;19912;-79
2022/08/18 05:33:20;;;;;;;;;;;16.80;59.20;;;;;;5089338;28;20327;-78
2022/08/18 05:35:50;;;;;;;;;;;16.80;59.20;;;;;;5087580;28;19958;-78
2022/08/18 05:38:51;;;;;;;;;;;16.80;59.20;;;;;;5089004;28;19999;-79
2022/08/18 05:41:27;;;;;;;;;;;16.80;59.70;;;;;;5049075;28;19924;-79
2022/08/18 05:43:53;;;;;;;;;;;16.80;59.10;;;;;;5081593;28;19919;-79
2022/08/18 05:46:23;;;;;;;;;;;16.80;59.20;;;;;;5089028;28;20279;-79
2022/08/18 05:48:49;;;;;;;;;;;16.70;59.20;;;;;;5088809;28;19918;-79
2022/08/18 05:51:41;;;;;;;;;;;16.70;59.30;;;;;;5087389;28;19908;-78
2022/08/18 05:56:54;;;;;;;;;;;16.80;59.30;;;;;;5088716;28;19993;-79
2022/08/18 05:59:22;;;;;;;;;;;16.80;59.30;;;;;;5088785;28;20404;-79
2022/08/18 06:01:51;;;;;;;;;;;16.90;59.40;;;;;;5088515;28;20037;-79
2022/08/18 06:04:17;;;;;;;;;;;16.90;59.40;;;;;;5087453;28;20347;-78
2022/08/18 06:06:43;;;;;;;;;;;16.90;59.30;;;;;;5089364;28;19999;-79
2022/08/18 06:09:14;;;;;;;;;;;17.00;59.40;;;;;;5088398;28;19962;-79
2022/08/18 06:11:40;;;;;;;;;;;17.00;59.30;;;;;;5088836;28;19961;-79
2022/08/18 06:14:05;;;;;;;;;;;17.00;59.30;;;;;;5088716;28;20280;-79
2022/08/18 06:16:46;;;;;;;;;;;17.00;59.20;;;;;;5088275;28;19958;-79
2022/08/18 06:19:33;;;;;;;;;;;17.10;59.30;;;;;;5086872;28;19953;-77
2022/08/18 06:22:07;;;;;;;;;;;17.10;59.30;;;;;;5087782;28;19915;-79
2022/08/18 06:24:36;;;;;;;;;;;17.10;59.30;;;;;;5088212;28;19912;-79
2022/08/18 06:27:14;;;;;;;;;;;17.10;59.30;;;;;;5088131;28;19915;-80
2022/08/18 06:29:46;;;;;;;;;;;17.20;59.40;;;;;;5086602;28;19931;-79
2022/08/18 06:32:33;;;;;;;;;;;17.20;59.40;;;;;;5088101;28;19907;-79
2022/08/18 06:35:01;;;;;;;;;;;17.20;59.30;;;;;;5065537;28;19916;-79
2022/08/18 06:37:27;;;;;;;;;;;17.20;59.30;;;;;;5088122;28;19908;-79
2022/08/18 06:39:52;;;;;;;;;;;17.20;59.30;;;;;;5087754;28;20007;-80
2022/08/18 06:42:20;;;;;;;;;;;17.30;59.40;;;;;;5087693;28;19964;-79
2022/08/18 06:44:52;;;;;;;;;;;17.30;59.40;;;;;;5086522;28;19912;-79
2022/08/18 06:47:18;;;;;;;;;;;17.30;59.30;;;;;;5088100;28;19918;-79
2022/08/18 06:50:03;;;;;;;;;;;17.30;59.30;;;;;;5086731;28;20352;-79
2022/08/18 06:52:30;;;;;;;;;;;17.40;59.30;;;;;;5086423;28;19912;-80
2022/08/18 06:54:57;;;;;;;;;;;17.40;59.30;;;;;;5087874;28;19915;-78
2022/08/18 06:57:26;;;;;;;;;;;17.50;59.40;;;;;;5087704;28;20377;-79
2022/08/18 07:00:00;;;;;;;;;;;17.50;59.40;;;;;;5086124;28;19916;-80
2022/08/18 07:02:34;;;;;;;;;;;17.50;59.30;;;;;;5086537;28;19908;-79
2022/08/18 07:05:04;;;;;;;;;;;17.60;59.50;;;;;;5087679;28;19944;-79
2022/08/18 07:07:38;;;;;;;;;;;17.90;59.60;;;;;;5087733;28;20002;-79
2022/08/18 07:10:07;;;;;;;;;;;18.20;59.50;;;;;;5087576;28;19908;-80
2022/08/18 07:12:33;;;;;;;;;;;18.60;59.40;;;;;;5087709;28;19912;-80
2022/08/18 07:15:00;;;;;;;;;;;18.80;59.00;;;;;;5086176;28;19962;-80
2022/08/18 07:17:33;;;;;;;;;;;19.00;58.90;;;;;;5087596;28;19918;-79
2022/08/18 07:20:05;;;;;;;;;;;19.00;58.80;;;;;;5087556;28;19961;-79
2022/08/18 07:22:31;;;;;;;;;;;18.90;58.80;;;;;;5087285;28;20319;-79
2022/08/18 07:24:59;;;;;;;;;;;18.80;58.90;;;;;;5087097;28;19912;-79
2022/08/18 07:27:43;;;;;;;;;;;18.70;59.00;;;;;;5087488;28;19910;-80
2022/08/18 07:30:29;;;;;;;;;;;18.70;59.10;;;;;;5087659;28;20049;-80
2022/08/18 07:33:08;;;;;;;;;;;18.60;59.20;;;;;;5090040;28;19927;-79
2022/08/18 07:35:40;;;;;;;;;;;18.50;59.30;;;;;;5090667;28;19923;-79
2022/08/18 07:38:16;;;;;;;;;;;18.40;59.40;;;;;;5090795;28;20303;-79
2022/08/18 07:40:48;;;;;;;;;;;18.50;59.50;;;;;;5090045;28;19965;-79
2022/08/18 07:43:20;;;;;;;;;;;18.50;59.50;;;;;;5090752;28;20318;-77
2022/08/18 07:45:46;;;;;;;;;;;18.60;59.50;;;;;;5090523;28;19912;-78
2022/08/18 07:48:29;;;;;;;;;;;18.60;59.40;;;;;;5090102;28;19915;-79
2022/08/18 07:51:15;;;;;;;;;;;18.60;59.50;;;;;;5090286;28;19908;-79
2022/08/18 07:53:44;;;;;;;;;;;18.50;59.50;;;;;;5088005;28;19939;-79
2022/08/18 07:56:18;;;;;;;;;;;18.60;59.60;;;;;;5089949;28;19973;-79
2022/08/18 07:58:47;;;;;;;;;;;18.60;59.60;;;;;;5088993;28;19922;-79
2022/08/18 08:01:23;;;;;;;;;;;18.70;59.60;;;;;;5090293;28;19970;-78
2022/08/18 08:03:56;;;;;;;;;;;18.70;59.60;;;;;;5089284;28;19911;-79
2022/08/18 08:06:34;;;;;;;;;;;18.70;59.50;;;;;;5090437;28;20002;-78
2022/08/18 08:08:59;;;;;;;;;;;18.70;59.60;;;;;;5090281;28;19931;-78
2022/08/18 08:11:40;;;;;;;;;;;18.80;59.60;;;;;;5088838;28;19912;-78
2022/08/18 08:14:09;;;;;;;;;;;18.90;59.70;;;;;;5089173;28;19957;-79
2022/08/18 08:16:40;;;;;;;;;;;18.90;59.50;;;;;;5090474;28;20376;-79
2022/08/18 08:19:14;;;;;;;;;;;18.80;59.50;;;;;;5088959;28;19908;-79
2022/08/18 08:21:45;;;;;;;;;;;18.80;59.60;;;;;;5088848;28;20447;-80
2022/08/18 08:24:11;;;;;;;;;;;18.90;59.70;;;;;;5090261;28;20405;-79
2022/08/18 08:26:50;;;;;;;;;;;19.00;59.80;;;;;;5090493;28;19920;-79
2022/08/18 08:29:35;;;;;;;;;;;19.20;59.80;;;;;;5090579;28;19912;-79
2022/08/18 08:32:23;;;;;;;;;;;19.30;59.70;;;;;;5089945;28;19912;-79
2022/08/18 08:34:53;;;;;;;;;;;19.40;59.70;;;;;;5090302;28;19922;-79
2022/08/18 08:37:21;;;;;;;;;;;19.70;59.80;;;;;;5088495;28;19920;-78
2022/08/18 08:40:02;;;;;;;;;;;19.90;59.70;;;;;;5089302;28;20003;-79
2022/08/18 08:42:44;;;;;;;;;;;20.10;59.50;;;;;;5089527;28;19930;-79
2022/08/18 08:45:12;;;;;;;;;;;20.20;59.40;;;;;;5089447;28;19914;-79
2022/08/18 08:47:44;;;;;;;;;;;20.30;59.30;;;;;;5089749;28;19959;-79
2022/08/18 08:50:12;;;;;;;;;;;20.50;59.40;;;;;;5089713;28;19918;-79
2022/08/18 08:52:44;;;;;;;;;;;20.60;59.40;;;;;;5088382;28;19912;-79
2022/08/18 08:55:14;;;;;;;;;;;20.70;59.40;;;;;;5088136;28;19908;-79
2022/08/18 08:57:50;;;;;;;;;;;20.80;59.30;;;;;;5089457;28;19915;-79
2022/08/18 09:00:16;;;;;;;;;;;20.90;59.40;;;;;;5089128;28;19909;-79
2022/08/18 09:02:42;;;;;;;;;;;21.00;59.40;;;;;;5087835;28;20249;-79
2022/08/18 09:05:13;;;;;;;;;;;21.00;59.30;;;;;;5089598;28;19919;-79
2022/08/18 09:07:39;;;;;;;;;;;20.90;59.30;;;;;;5089607;28;19961;-79
2022/08/18 09:10:14;;;;;;;;;;;20.80;59.40;;;;;;5090493;28;20014;-79
2022/08/18 09:13:04;;;;;;;;;;;20.70;59.50;;;;;;5089401;28;20325;-79
2022/08/18 09:15:58;;;;;;;;;;;20.80;59.60;;;;;;5068818;28;20337;-79
2022/08/18 09:18:32;;;;;;;;;;;20.70;59.60;;;;;;5089997;28;19915;-79
2022/08/18 09:21:17;;;;;;;;;;;20.80;59.70;;;;;;5091277;28;19957;-79
2022/08/18 09:23:45;;;;;;;;;;;21.00;59.90;;;;;;5091353;28;19914;-79
2022/08/18 09:26:25;;;;;;;;;;;21.20;59.80;;;;;;5091235;28;20007;-79
2022/08/18 09:28:56;;;;;;;;;;;21.30;59.80;;;;;;5091201;28;19908;-79
2022/08/18 09:31:22;;;;;;;;;;;21.60;59.70;;;;;;5090103;28;20310;-79
2022/08/18 09:34:03;;;;;;;;;;;21.80;59.60;;;;;;5090805;28;19924;-79
2022/08/18 09:36:40;;;;;;;;;;;22.00;59.50;;;;;;5090877;28;19938;-79
2022/08/18 09:42:16;;;;;;;;;;;22.30;59.40;;;;;;5090748;28;20383;-79
2022/08/18 09:44:45;;;;;;;;;;;22.30;59.30;;;;;;5089482;28;19909;-80
2022/08/18 09:47:11;;;;;;;;;;;22.40;59.30;;;;;;5090430;28;19908;-79
2022/08/18 09:49:45;;;;;;;;;;;22.50;59.40;;;;;;5089353;28;19938;-79
2022/08/18 09:52:20;;;;;;;;;;;22.60;59.30;;;;;;5090822;28;19931;-79
2022/08/18 09:54:51;;;;;;;;;;;22.50;59.20;;;;;;5089745;28;19909;-79
2022/08/18 09:57:19;;;;;;;;;;;22.40;59.30;;;;;;5090438;28;20085;-79
2022/08/18 09:59:44;;;;;;;;;;;22.40;59.50;;;;;;5090128;28;20008;-78
2022/08/18 10:02:36;;;;;;;;;;;22.50;59.60;;;;;;5090412;28;19939;-78
2022/08/18 10:05:14;;;;;;;;;;;22.50;59.50;;;;;;5078995;28;19927;-76
2022/08/18 10:07:42;;;;;;;;;;;22.50;59.50;;;;;;5089423;28;20569;-80
2022/08/18 10:10:13;;;;;;;;;;;22.50;59.50;;;;;;5088277;28;20000;-78
2022/08/18 10:12:57;;;;;;;;;;;22.50;59.50;;;;;;5088846;28;19908;-77
2022/08/18 10:15:26;;;;;;;;;;;22.50;59.50;;;;;;5090326;28;19973;-78
2022/08/18 10:18:03;;;;;;;;;;;22.70;59.70;;;;;;5090816;28;19908;-79
2022/08/18 10:20:34;;;;;;;;;;;22.90;59.90;;;;;;5089166;28;19910;-78
2022/08/18 10:23:00;;;;;;;;;;;23.30;59.70;;;;;;5089841;28;19908;-75
2022/08/18 10:25:47;;;;;;;;;;;23.60;59.60;;;;;;5090024;28;19912;-77
2022/08/18 10:28:33;;;;;;;;;;;23.80;59.30;;;;;;5072875;28;19974;-80
2022/08/18 10:31:01;;;;;;;;;;;23.90;59.20;;;;;;5089719;28;19962;-79
2022/08/18 10:33:45;;;;;;;;;;;24.10;59.40;;;;;;5087902;28;19908;-76
2022/08/18 10:36:31;;;;;;;;;;;24.10;59.10;;;;;;5089165;28;19912;-75
2022/08/18 10:38:56;;;;;;;;;;;24.10;59.20;;;;;;5089318;28;20033;-76
2022/08/18 10:41:26;;;;;;;;;;;24.00;59.20;;;;;;5089050;28;19959;-79
2022/08/18 10:43:52;;;;;;;;;;;23.90;59.30;;;;;;5089116;28;19916;-76
2022/08/18 10:46:30;;;;;;;;;;;23.80;59.30;;;;;;5089356;28;20306;-76
2022/08/18 10:49:00;;;;;;;;;;;23.60;59.20;;;;;;5089236;28;19935;-75
2022/08/18 10:51:33;;;;;;;;;;;23.40;60.00;;;;;;5089426;28;20344;-77
2022/08/18 10:54:04;;;;;;;;;;;23.40;59.60;;;;;;5088192;28;19909;-79
2022/08/18 10:56:42;;;;;;;;;;;23.30;59.70;;;;;;5089385;28;20265;-78
2022/08/18 10:59:20;;;;;;;;;;;23.30;59.70;;;;;;5089024;28;20264;-76
2022/08/18 11:01:45;;;;;;;;;;;23.20;59.70;;;;;;5089161;28;20367;-78
2022/08/18 11:04:23;;;;;;;;;;;23.30;59.80;;;;;;5089921;28;19971;-79
2022/08/18 11:06:50;;;;;;;;;;;23.20;59.60;;;;;;5090716;28;19943;-80
2022/08/18 11:09:24;;;;;;;;;;;23.20;59.70;;;;;;5093556;28;19912;-79
2022/08/18 11:11:51;;;;;;;;;;;23.10;59.70;;;;;;5093628;28;19936;-79
2022/08/18 11:14:33;;;;;;;;;;;23.10;59.80;;;;;;5093763;28;19994;-79
2022/08/18 11:17:10;;;;;;;;;;;23.10;59.80;;;;;;5093053;28;19923;-78
2022/08/18 11:19:37;;;;;;;;;;;23.10;59.80;;;;;;5091841;28;19908;-79
2022/08/18 11:22:03;;;;;;;;;;;23.00;59.80;;;;;;5093165;28;19908;-78
2022/08/18 11:24:31;;;;;;;;;;;23.00;59.90;;;;;;5093513;28;19934;-77
2022/08/18 11:26:58;;;;;;;;;;;22.90;59.90;;;;;;5092783;28;19966;-77
2022/08/18 11:29:50;;;;;;;;;;;22.90;60.00;;;;;;5092332;28;19971;-75
2022/08/18 11:32:22;;;;;;;;;;;22.80;60.00;;;;;;5091693;28;19969;-75
2022/08/18 11:35:00;;;;;;;;;;;22.80;59.90;;;;;;5092846;28;19966;-76
2022/08/18 11:37:33;;;;;;;;;;;22.70;59.80;;;;;;5092448;28;19912;-76
2022/08/18 11:40:00;;;;;;;;;;;22.70;60.00;;;;;;5092406;28;19912;-75
2022/08/18 11:42:32;;;;;;;;;;;22.60;60.00;;;;;;5091278;28;19920;-79
2022/08/18 11:45:02;;;;;;;;;;;22.50;60.00;;;;;;5092240;28;19916;-77
2022/08/18 11:47:27;;;;;;;;;;;22.50;60.10;;;;;;5091056;28;19912;-75
2022/08/18 11:50:07;;;;;;;;;;;22.60;60.30;;;;;;5090464;28;19923;-76
2022/08/18 11:52:44;;;;;;;;;;;22.80;60.30;;;;;;5089955;28;20454;-76
2022/08/18 11:55:20;;;;;;;;;;;23.10;60.30;;;;;;5091520;28;19954;-77
2022/08/18 11:57:53;;;;;;;;;;;23.40;60.10;;;;;;5092193;28;19912;-75
2022/08/18 12:00:37;;;;;;;;;;;23.50;59.90;;;;;;5089618;28;20001;-77
2022/08/18 12:03:18;;;;;;;;;;;23.60;59.80;;;;;;5089793;28;20345;-82
2022/08/18 12:05:49;;;;;;;;;;;23.60;59.70;;;;;;5092423;28;19908;-79
2022/08/18 12:08:20;;;;;;;;;;;23.50;59.70;;;;;;5092198;28;20541;-79
2022/08/18 12:10:47;;;;;;;;;;;23.40;59.80;;;;;;5092286;28;19908;-77
2022/08/18 12:13:20;;;;;;;;;;;23.30;59.90;;;;;;5091919;28;19922;-78
2022/08/18 12:15:46;;;;;;;;;;;23.30;60.00;;;;;;5091476;28;19920;-79
2022/08/18 12:18:11;;;;;;;;;;;23.30;60.00;;;;;;5089877;28;20386;-79
2022/08/18 12:20:37;;;;;;;;;;;23.40;60.00;;;;;;5090862;28;20026;-79
2022/08/18 12:23:02;;;;;;;;;;;23.40;60.00;;;;;;5092809;28;20275;-79
2022/08/18 12:25:28;;;;;;;;;;;23.30;60.00;;;;;;5074013;28;19927;-77
2022/08/18 12:27:53;;;;;;;;;;;23.30;60.10;;;;;;5092014;28;19994;-77
2022/08/18 12:30:19;;;;;;;;;;;23.30;60.10;;;;;;5091996;28;19916;-78
2022/08/18 12:32:45;;;;;;;;;;;23.30;60.00;;;;;;5092082;28;20383;-78
2022/08/18 12:35:11;;;;;;;;;;;23.30;60.00;;;;;;5091350;28;19946;-75
2022/08/18 12:37:39;;;;;;;;;;;23.20;60.00;;;;;;5091490;28;19912;-78
2022/08/18 12:40:06;;;;;;;;;;;23.20;60.10;;;;;;5091450;28;19908;-77
2022/08/18 12:42:33;;;;;;;;;;;23.20;60.20;;;;;;5090308;28;19924;-77
2022/08/18 12:44:59;;;;;;;;;;;23.20;60.10;;;;;;5090604;28;19912;-76
2022/08/18 12:47:25;;;;;;;;;;;23.10;60.00;;;;;;5089964;28;19974;-75
2022/08/18 12:49:51;;;;;;;;;;;23.00;60.10;;;;;;5091436;28;19913;-74
2022/08/18 12:52:16;;;;;;;;;;;22.90;60.20;;;;;;5091822;28;19931;-82
2022/08/18 12:54:45;;;;;;;;;;;22.90;60.20;;;;;;5073450;28;19934;-76
2022/08/18 12:57:22;;;;;;;;;;;22.90;60.20;;;;;;5089637;28;19937;-76
2022/08/18 12:59:47;;;;;;;;;;;22.90;60.20;;;;;;5091268;28;20369;-78
2022/08/18 13:02:13;;;;;;;;;;;23.00;60.20;;;;;;5091614;28;19912;-77
2022/08/18 13:04:39;;;;;;;;;;;23.00;60.20;;;;;;5091377;28;19916;-79
2022/08/18 13:07:06;;;;;;;;;;;23.00;60.20;;;;;;5091914;28;19916;-79
2022/08/18 13:09:33;;;;;;;;;;;23.10;60.30;;;;;;5090268;28;19953;-78
2022/08/18 13:11:58;;;;;;;;;;;23.40;60.30;;;;;;5091694;28;20003;-77
2022/08/18 13:14:24;;;;;;;;;;;23.90;60.30;;;;;;5091125;28;19966;-79
2022/08/18 13:16:50;;;;;;;;;;;24.40;60.30;;;;;;5089585;28;19920;-77
2022/08/18 13:19:16;;;;;;;;;;;24.80;60.00;;;;;;5091444;28;19913;-78
2022/08/18 13:21:42;;;;;;;;;;;25.10;60.00;;;;;;5072205;28;20057;-76
2022/08/18 13:24:08;;;;;;;;;;;25.30;59.70;;;;;;5090749;28;19919;-80
2022/08/18 13:26:35;;;;;;;;;;;25.40;59.80;;;;;;5089185;28;19912;-79
2022/08/18 13:29:01;;;;;;;;;;;25.80;60.20;;;;;;5090541;28;19908;-79
2022/08/18 13:31:27;;;;;;;;;;;26.00;60.00;;;;;;5090504;28;20274;-80
2022/08/18 13:33:55;;;;;;;;;;;26.10;59.70;;;;;;5090545;28;20361;-79
2022/08/18 13:36:21;;;;;;;;;;;26.00;59.60;;;;;;5090244;28;19918;-80
2022/08/18 13:38:46;;;;;;;;;;;26.00;59.70;;;;;;5090655;28;20363;-80
2022/08/18 13:41:12;;;;;;;;;;;25.80;59.50;;;;;;5090277;28;20007;-80
2022/08/18 13:43:40;;;;;;;;;;;25.60;59.70;;;;;;5089712;28;20332;-80
2022/08/18 13:46:07;;;;;;;;;;;25.60;59.90;;;;;;5091814;28;19908;-80
2022/08/18 13:48:33;;;;;;;;;;;25.70;60.00;;;;;;5090264;28;19908;-79
2022/08/18 13:51:00;;;;;;;;;;;25.70;59.90;;;;;;5090542;28;19995;-80
2022/08/18 13:53:26;;;;;;;;;;;25.70;59.90;;;;;;5091485;28;19908;-80
2022/08/18 13:55:51;;;;;;;;;;;25.70;60.00;;;;;;5088894;28;19965;-80
2022/08/18 13:58:17;;;;;;;;;;;25.70;60.00;;;;;;5088994;28;19920;-80
2022/08/18 14:00:43;;;;;;;;;;;25.80;60.10;;;;;;5090177;28;19911;-79
2022/08/18 14:03:09;;;;;;;;;;;25.80;60.00;;;;;;5088258;28;19908;-80
2022/08/18 14:05:35;;;;;;;;;;;25.90;60.10;;;;;;5089181;28;20006;-82
2022/08/18 14:08:01;;;;;;;;;;;25.90;60.00;;;;;;5071663;28;20073;-78
2022/08/18 14:10:27;;;;;;;;;;;25.90;60.00;;;;;;5089192;28;19915;-80
2022/08/18 14:12:55;;;;;;;;;;;25.90;60.00;;;;;;5088413;28;19912;-82
2022/08/18 14:15:21;;;;;;;;;;;25.80;60.00;;;;;;5090320;28;19908;-81
2022/08/18 14:17:47;;;;;;;;;;;25.80;60.10;;;;;;5090322;28;20117;-78
2022/08/18 14:28:27;;;;;;;;;;;25.70;60.30;;;;;;5089878;28;20276;-77
2022/08/18 14:30:52;;;;;;;;;;;25.80;60.40;;;;;;5089678;28;19958;-76
2022/08/18 14:33:20;;;;;;;;;;;25.80;60.40;;;;;;5089466;28;19964;-79
2022/08/18 14:35:46;;;;;;;;;;;25.80;60.30;;;;;;5088143;28;19931;-78
2022/08/18 14:38:13;;;;;;;;;;;25.70;60.10;;;;;;5088679;28;19908;-77
2022/08/18 14:40:40;;;;;;;;;;;25.80;60.50;;;;;;5088153;28;20528;-80
2022/08/18 14:43:05;;;;;;;;;;;25.80;60.50;;;;;;5087220;28;19916;-74
2022/08/18 14:45:31;;;;;;;;;;;25.80;60.40;;;;;;5087958;28;19912;-77
2022/08/18 14:47:57;;;;;;;;;;;25.90;60.40;;;;;;5088671;28;19924;-77
2022/08/18 14:50:22;;;;;;;;;;;25.80;60.40;;;;;;5089300;28;19915;-78
2022/08/18 14:52:48;;;;;;;;;;;25.70;60.30;;;;;;5089302;28;20366;-78
2022/08/18 14:55:15;;;;;;;;;;;25.50;60.20;;;;;;5087825;28;19908;-78